Home > Products > Valid Products > TAF

000
FTUS44 KCRP 272334
TAFCRP
TAF
KCRP 272334Z 2800/2824 13015KT P6SM SCT035
     FM280200 14010KT P6SM SCT008 BKN015
     FM281400 15012KT P6SM BKN025
     FM281600 15015G22KT P6SM SCT035=



000
FTUS44 KCRP 272334
TAFALI
TAF
KALI 272334Z 2800/2824 13012G20KT P6SM FEW030 SCT040
     FM280200 14007KT 6SM BR SCT008 BKN015
      TEMPO 2808/2812 4SM BR BKN008 OVC015
     FM281400 15010KT P6SM SCT015 BKN025
     FM281700 14012G20KT P6SM FEW030 SCT040=



000
FTUS44 KCRP 272334
TAFVCT
TAF
KVCT 272334Z 2800/2824 13015KT P6SM SCT035
     FM280300 12007KT 6SM BR OVC015
      TEMPO 2808/2812 4SM BR BKN008
     FM281500 15012KT P6SM BKN025
     FM281700 14012G20KT P6SM BKN035=



000
FTUS44 KCRP 272334
TAFLRD
TAF
KLRD 272334Z 2800/2824 13012KT P6SM SCT050
     FM280400 12010KT P6SM SCT015
     FM280600 13012KT P6SM OVC015
     FM281600 14015G22KT P6SM BKN035=



000
FTUS44 KCRP 271733
TAFLRD
TAF
KLRD 271733Z 2718/2818 13011KT P6SM SCT015 BKN035
     FM271900 13016KT P6SM SCT050
     FM280400 12010KT P6SM SCT015
     FM280600 13012KT P6SM BKN015
     FM281600 15013KT P6SM BKN035=



000
FTUS44 KCRP 271733
TAFCRP
TAF
KCRP 271733Z 2718/2818 14017G23KT P6SM SCT035
     FM280300 14010KT P6SM SCT008 BKN015
     FM281200 15012KT P6SM SCT020
      TEMPO 2812/2814 BKN020
     FM281600 15015G22KT P6SM SCT035=



000
FTUS44 KCRP 271733
TAFALI
TAF
KALI 271733Z 2718/2818 14014G20KT P6SM FEW030 SCT040
     FM280400 14007KT 6SM BR SCT008 BKN015
      TEMPO 2808/2812 4SM BR BKN008 OVC015
     FM281400 15011KT P6SM SCT015 BKN025
     FM281700 15014G20KT P6SM FEW030 SCT040=



000
FTUS44 KCRP 271733
TAFVCT
TAF
KVCT 271733Z 2718/2818 13014G20KT P6SM SCT035
      TEMPO 2718/2720 -RA SCT035
     FM280300 12007KT 6SM BR SCT013 BKN025
      TEMPO 2808/2812 4SM BR FEW008 BKN015
     FM281500 15012KT P6SM SCT025 BKN035=



000
FTUS44 KCRP 271120
TAFLRD
TAF
KLRD 271120Z 2712/2812 13008KT P6SM OVC018
     FM271500 13011KT P6SM SCT015 BKN035
     FM271900 15016KT P6SM SCT040
     FM280400 12010KT P6SM SCT015
     FM280600 13012KT P6SM BKN015=



000
FTUS44 KCRP 271120
TAFCRP
TAF
KCRP 271120Z 2712/2812 14010KT P6SM SCT015 OVC250
      TEMPO 2712/2714 BKN015
     FM271400 16013KT P6SM SCT015 BKN024
     FM271800 15017G23KT P6SM SCT035
     FM280400 14010KT P6SM SCT008 BKN015=



000
FTUS44 KCRP 271120
TAFVCT
TAF
KVCT 271120Z 2712/2812 15006KT 4SM BR SCT011 OVC020
     FM271500 15012KT P6SM SCT015 BKN028
     FM271800 15013KT P6SM SCT035
     FM280300 12007KT 6SM BR SCT013 BKN025
      TEMPO 2808/2812 4SM BR FEW008 BKN015=



000
FTUS44 KCRP 271120
TAFLRD
TAF
KLRD 271120Z 2712/2812 13008KT P6SM OVC018
     FM271500 13011KT P6SM SCT015 BKN035
     FM271900 15016KT P6SM SCT040
     FM280400 12010KT P6SM SCT015
     FM280600 13012KT P6SM BKN015=



000
FTUS44 KCRP 271120
TAFALI
TAF
KALI 271120Z 2712/2812 14008KT 6SM BR FEW008 SCT015 OVC025
      TEMPO 2712/2714 4SM BR BKN008 OVC015
     FM271400 15013KT P6SM SCT014 BKN020
     FM271900 14014KT P6SM SCT035
     FM280400 14007KT 6SM BR SCT008 BKN015
      TEMPO 2808/2812 4SM BR BKN008 OVC015=



000
FTUS44 KCRP 271120
TAFCRP
TAF
KCRP 271120Z 2712/2812 14010KT P6SM SCT015 OVC250
      TEMPO 2712/2714 BKN015
     FM271400 16013KT P6SM SCT015 BKN024
     FM271800 15017G23KT P6SM SCT035
     FM280400 14010KT P6SM SCT008 BKN015=



000
FTUS44 KCRP 271120
TAFALI
TAF
KALI 271120Z 2712/2812 14008KT 6SM BR FEW008 SCT015 OVC025
      TEMPO 2712/2714 4SM BR BKN008 OVC015
     FM271400 15013KT P6SM SCT014 BKN020
     FM271900 14014KT P6SM SCT035
     FM280400 14007KT 6SM BR SCT008 BKN015
      TEMPO 2808/2812 4SM BR BKN008 OVC015=



000
FTUS44 KCRP 271120
TAFVCT
TAF
KVCT 271120Z 2712/2812 15006KT 4SM BR SCT011 OVC020
     FM271500 15012KT P6SM SCT015 BKN028
     FM271800 15013KT P6SM SCT035
     FM280300 12007KT 6SM BR SCT013 BKN025
      TEMPO 2808/2812 4SM BR FEW008 BKN015=



000
FTUS44 KCRP 270520
TAFCRP
TAF
KCRP 270520Z 2706/2806 15008KT P6SM FEW009 SCT015 OVC250
      TEMPO 2708/2712 5SM BR SCT009 BKN015
     FM271400 16013KT P6SM SCT015 BKN024
     FM271800 15017G23KT P6SM SCT035
     FM280400 14010KT P6SM SCT008 BKN015=



000
FTUS44 KCRP 270520
TAFVCT
TAF
KVCT 270520Z 2706/2806 13008KT 6SM BR FEW007 SCT013 BKN025
      TEMPO 2707/2711 4SM BR SCT007 BKN010
     FM271500 15012KT P6SM SCT015 BKN025
     FM271800 15013KT P6SM SCT035
     FM280300 12007KT 6SM BR SCT013 BKN025=



000
FTUS44 KCRP 270520
TAFLRD
TAF
KLRD 270520Z 2706/2806 14011KT P6SM FEW025 OVC150
     FM270900 13008KT P6SM OVC012
     FM271500 15013KT P6SM SCT015 BKN025
     FM271700 15015KT P6SM SCT040
     FM280400 12008KT P6SM SCT015=



000
FTUS44 KCRP 270520
TAFALI
TAF
KALI 270520Z 2706/2806 13008KT 6SM BR BKN008 OVC015
      TEMPO 2707/2711 4SM BR SCT009 OVC015
     FM271400 15013KT P6SM SCT014 BKN020
     FM271900 14014KT P6SM SCT035
     FM280400 14007KT 6SM BR SCT008 BKN015=



000
FTUS44 KCRP 270004 AAA
TAFVCT
TAF AMD
KVCT 270004Z 2700/2724 13012KT P6SM VCSH SCT025 BKN028
     FM270200 13008KT 6SM BR BKN018
      TEMPO 2708/2712 4SM BR BKN010
     FM271500 15012KT P6SM SCT015 BKN025
     FM271800 15013KT P6SM SCT025 BKN035=



000
FTUS44 KCRP 262331
TAFCRP
TAF
KCRP 262331Z 2700/2724 13014KT P6SM SCT018 BKN028
      TEMPO 2700/2703 BKN016
     FM270300 15008KT P6SM BKN015
     FM271400 16013KT P6SM SCT015 BKN024
     FM271800 15017G23KT P6SM SCT025 BKN035=



000
FTUS44 KCRP 262331
TAFLRD
TAF
KLRD 262331Z 2700/2724 14011KT P6SM FEW025
     FM270900 13008KT P6SM OVC012
     FM271500 15013KT P6SM SCT015 BKN025
     FM271700 15015KT P6SM SCT030 BKN050=



000
FTUS44 KCRP 262331
TAFVCT
TAF
KVCT 262331Z 2700/2724 13012KT P6SM VCSH SCT025 BKN035
     FM270200 13008KT 6SM BR BKN018
      TEMPO 2708/2712 4SM BR BKN010
     FM271500 15012KT P6SM SCT015 BKN025
     FM271800 15013KT P6SM SCT025 BKN035=



000
FTUS44 KCRP 262331
TAFALI
TAF
KALI 262331Z 2700/2724 14013KT P6SM SCT025 BKN035
     FM270300 13009KT 6SM BR BKN012
      TEMPO 2710/2713 4SM BR BKN009
     FM271400 15013KT P6SM SCT014 BKN020
     FM271900 14014G19KT P6SM SCT025 BKN035=



000
FTUS44 KCRP 261740
TAFALI
TAF
KALI 261740Z 2618/2718 14013KT P6SM VCSH FEW012 SCT030 BKN045
     FM261900 14012G19KT P6SM SCT025 BKN040
     FM270100 13009KT P6SM SCT025
     FM270400 15006KT P6SM BKN015
     FM270900 13006KT 5SM BR BKN009
      TEMPO 2710/2713 2SM BR BKN009
     FM271400 16013KT P6SM SCT015 BKN025=



000
FTUS44 KCRP 261740
TAFLRD
TAF
KLRD 261740Z 2618/2718 12010KT P6SM SCT025 BKN040
     FM262200 13011KT P6SM SCT050
     FM270200 12014KT P6SM FEW050 BKN250
     FM270900 14009KT P6SM OVC012
     FM271600 15010KT P6SM FEW015 BKN025 BKN035=



000
FTUS44 KCRP 261740
TAFVCT
TAF
KVCT 261740Z 2618/2718 14014G20KT P6SM VCSH SCT018 BKN035
     FM262000 15014G20KT P6SM VCSH SCT035 BKN250
     FM270200 14008KT P6SM BKN025
      TEMPO 2702/2704 SCT015 BKN250
     FM270700 13006KT 5SM BR BKN015
      TEMPO 2708/2712 2SM BR BKN015
     FM271500 15012KT P6SM BKN025=



000
FTUS44 KCRP 261740
TAFCRP
TAF
KCRP 261740Z 2618/2718 15014G20KT P6SM VCSH SCT025 BKN040
     FM261900 14015G21KT P6SM SCT040 BKN250
     FM270100 14011KT P6SM SCT025
     FM270400 15010KT P6SM BKN015
     FM271400 16013G18KT P6SM SCT015 BKN025=



000
FTUS44 KCRP 261640 AAA
TAFALI
TAF AMD
KALI 261640Z 2617/2712 14013KT P6SM VCSH FEW012 SCT030 BKN045
     FM261900 14012KT P6SM SCT025 BKN040
     FM270100 13009KT P6SM SCT025
     FM270400 15006KT P6SM BKN015
     FM270900 13006KT 5SM BR BKN009=



000
FTUS44 KCRP 261406 AAA
TAFVCT
TAF AMD
KVCT 261406Z 2614/2712 09006KT P6SM VCSH BKN015 BKN025 BKN035
     FM261600 16011KT P6SM VCSH SCT018 BKN035
     FM262000 15013KT P6SM SCT050 BKN250
     FM270100 14008KT P6SM BKN025
      TEMPO 2701/2704 SCT015 BKN250
     FM270700 13006KT 5SM BR OVC015=



000
FTUS44 KCRP 261406 AAA
TAFVCT
TAF AMD
KVCT 261406Z 2614/2712 09006KT P6SM VCSH BKN015 BKN025 BKN035
     FM261600 16011KT P6SM VCSH SCT018 BKN035
     FM262000 15013KT P6SM SCT050 BKN250
     FM270100 14008KT P6SM BKN025
      TEMPO 2701/2704 SCT015 BKN250
     FM270700 13006KT 5SM BR OVC015=



000
FTUS44 KCRP 261132
TAFALI
TAF
KALI 261132Z 2612/2712 14010KT 4SM BR SCT007 BKN015
      TEMPO 2612/2614 3SM BR BKN007 OVC015
     FM261400 15013KT P6SM VCSH SCT012 BKN025
     FM261900 14012KT P6SM SCT025 BKN040
     FM270100 13009KT P6SM SCT025
     FM270400 15006KT P6SM BKN015
     FM270900 13006KT 5SM BR BKN009=



000
FTUS44 KCRP 261132
TAFVCT
TAF
KVCT 261132Z 2612/2712 11006KT P6SM SCT025 BKN035
      TEMPO 2614/2616 BKN025
     FM261600 16011KT P6SM VCSH SCT018 BKN035
     FM262000 15013KT P6SM SCT050 BKN250
     FM270100 14008KT P6SM BKN025
      TEMPO 2701/2704 SCT015 BKN250
     FM270700 13006KT 5SM BR OVC015=



000
FTUS44 KCRP 261132
TAFCRP
TAF
KCRP 261132Z 2612/2712 14013KT P6SM SCT025 BKN250
      TEMPO 2613/2616 BKN025
     FM261600 15014G20KT P6SM VCSH SCT025 BKN040
     FM261900 14015G21KT P6SM SCT040 BKN250
     FM270100 14011KT P6SM SCT025
     FM270400 15007KT P6SM BKN015=



000
FTUS44 KCRP 261132
TAFLRD
TAF
KLRD 261132Z 2612/2712 15010KT 6SM BR OVC015
     FM261530 15010KT P6SM SCT025 BKN040
     FM262200 13011KT P6SM SCT050
     FM270200 12014KT P6SM FEW050 BKN250
     FM270900 14009KT P6SM OVC012=



000
FTUS44 KCRP 261007 AAC
TAFVCT
TAF AMD
KVCT 261007Z 2610/2706 11006KT 6SM BR SCT015 BKN250
      TEMPO 2610/2614 5SM BR BKN016
     FM261600 15012KT P6SM SCT018 BKN035
     FM261900 14013KT P6SM SCT040 BKN250
     FM270100 14008KT P6SM BKN015
      TEMPO 2701/2704 SCT015 BKN250=



000
FTUS44 KCRP 261006 AAC
TAFCRP
TAF AMD
KCRP 261006Z 2610/2706 14011KT P6SM SCT015 BKN250
      TEMPO 2610/2614 BKN018
     FM261430 15015G21KT P6SM SCT018 BKN035
     FM261800 14015G21KT P6SM SCT025 BKN040
     FM270100 14011KT P6SM SCT025
     FM270400 15007KT P6SM BKN015=



000
FTUS44 KCRP 261006 AAC
TAFCRP
TAF AMD
KCRP 261006Z 2610/2706 14011KT P6SM SCT015 BKN250
      TEMPO 2610/2614 BKN018
     FM261430 15015G21KT P6SM SCT018 BKN035
     FM261800 14015G21KT P6SM SCT025 BKN040
     FM270100 14011KT P6SM SCT025
     FM270400 15007KT P6SM BKN015=



000
FTUS44 KCRP 260830 AAB
TAFVCT
TAF AMD
KVCT 260830Z 2609/2706 15004KT 5SM BR BKN009 OVC012
      TEMPO 2609/2613 3SM BR SCT009 BKN012
     FM261600 15012KT P6SM SCT018 BKN035
     FM261900 14013KT P6SM SCT040 BKN250
     FM270100 14008KT P6SM BKN015
      TEMPO 2701/2704 SCT015 BKN250=



000
FTUS44 KCRP 260702 AAA
TAFVCT
TAF AMD
KVCT 260702Z 2607/2706 12010KT P6SM SCT120 BKN250
     FM261100 13006KT P6SM BKN012
     FM261600 15012KT P6SM SCT018 BKN035
     FM261900 14013KT P6SM SCT040 BKN250
     FM270100 14008KT P6SM BKN015
      TEMPO 2701/2704 SCT015 BKN250=



000
FTUS44 KCRP 260539
TAFVCT
TAF
KVCT 260539Z 2606/2706 05006KT P6SM VCTS SCT035CB BKN090
      TEMPO 2606/2608 5SM -TSRA BR BKN025CB OVC060
     FM261100 13006KT P6SM BKN012
     FM261600 15012KT P6SM SCT018 BKN035
     FM261900 14013KT P6SM SCT040 BKN250
     FM270100 14008KT P6SM BKN015
      TEMPO 2701/2704 SCT015 BKN250=



000
FTUS44 KCRP 260539
TAFCRP
TAF
KCRP 260539Z 2606/2706 15011KT P6SM BKN018
      TEMPO 2606/2609 SCT018
     FM261430 15015G21KT P6SM SCT018 BKN025
     FM261800 14015G21KT P6SM SCT025 BKN040
     FM270100 14011KT P6SM SCT025
     FM270400 15007KT P6SM BKN015=



000
FTUS44 KCRP 260539
TAFLRD
TAF
KLRD 260539Z 2606/2706 14010KT P6SM FEW025
     FM260900 15009KT P6SM OVC012
     FM261500 14011KT P6SM SCT025 BKN050
     FM262200 13013KT P6SM SCT050 BKN250=



000
FTUS44 KCRP 260539
TAFALI
TAF
KALI 260539Z 2606/2706 14006KT 4SM BR BKN018
      TEMPO 2609/2613 2SM BR OVC008
     FM261300 16010KT P6SM SCT012 BKN025
     FM261800 14014G18KT P6SM SCT025 BKN040
     FM270100 13009KT P6SM SCT025
     FM270400 15006KT P6SM BKN015=



000
FTUS44 KCRP 260421 AAD
TAFCRP
TAF AMD
KCRP 260421Z 2604/2624 15013KT P6SM FEW008 BKN015
      TEMPO 2604/2606 SCT018 BKN250
     FM260600 15011KT P6SM BKN011
     FM261430 15015G21KT P6SM SCT018 BKN025
     FM261800 14016G23KT P6SM SCT025 BKN035=



000
FTUS44 KCRP 260421 AAD
TAFCRP
TAF AMD
KCRP 260421Z 2604/2624 15013KT P6SM FEW008 BKN015
      TEMPO 2604/2606 SCT018 BKN250
     FM260600 15011KT P6SM BKN011
     FM261430 15015G21KT P6SM SCT018 BKN025
     FM261800 14016G23KT P6SM SCT025 BKN035=



000
FTUS44 KCRP 260228 AAC
TAFVCT
TAF AMD
KVCT 260228Z 2602/2624 15011KT 6SM BR VCTS SCT015CB BKN025
      TEMPO 2603/2606 VRB30G40KT 1SM +TSRA BR BKN015CB
     FM260700 15009KT P6SM BKN012
     FM261500 16015KT P6SM SCT018 BKN025
     FM261900 14013KT P6SM SCT025 BKN035=



000
FTUS44 KCRP 260228 AAC
TAFVCT
TAF AMD
KVCT 260228Z 2602/2624 15011KT 6SM BR VCTS SCT015CB BKN025
      TEMPO 2603/2606 VRB30G40KT 1SM +TSRA BR BKN015CB
     FM260700 15009KT P6SM BKN012
     FM261500 16015KT P6SM SCT018 BKN025
     FM261900 14013KT P6SM SCT025 BKN035=



000
FTUS44 KCRP 260117 AAB
TAFVCT
TAF AMD
KVCT 260117Z 2601/2624 16016KT 6SM BR VCTS SCT015CB BKN025
      TEMPO 2602/2606 VRB30G40KT 1SM +TSRA BR BKN015CB
     FM260600 15009KT P6SM BKN012
     FM261500 16015KT P6SM SCT018 BKN025
     FM261900 14013KT P6SM SCT025 BKN035=



000
FTUS44 KCRP 260033 AAA
TAFVCT
TAF AMD
KVCT 260033Z 2601/2624 16016KT P6SM VCTS SCT015CB BKN025
      TEMPO 2601/2604 VRB30G40KT 2SM TSRA BR BKN015CB
     FM260400 15009KT P6SM BKN012
     FM261500 16015KT P6SM SCT018 BKN025
     FM261900 14013KT P6SM SCT025 BKN035=



000
FTUS44 KCRP 260033 AAA
TAFVCT
TAF AMD
KVCT 260033Z 2601/2624 16016KT P6SM VCTS SCT015CB BKN025
      TEMPO 2601/2604 VRB30G40KT 2SM TSRA BR BKN015CB
     FM260400 15009KT P6SM BKN012
     FM261500 16015KT P6SM SCT018 BKN025
     FM261900 14013KT P6SM SCT025 BKN035=



000
FTUS44 KCRP 252349 CCA
TAFVCT
TAF COR
KVCT 252349Z 2600/2624 16016KT P6SM VCTS SCT015CB BKN025
      TEMPO 2600/2603 VRB30G40KT 2SM TSRA BR BKN015CB
     FM260300 13011KT P6SM SCT015 BKN100
     FM260400 15009KT 6SM BR BKN012
     FM261500 16015KT P6SM SCT018 BKN025
     FM261900 14013KT P6SM SCT025 BKN035=



000
FTUS44 KCRP 252334
TAFLRD
TAF
KLRD 252334Z 2600/2624 17008KT P6SM FEW025
     FM260800 15010KT P6SM OVC012
      TEMPO 2610/2614 BKN009
     FM261500 15012KT P6SM SCT018 BKN026
     FM261700 13013KT P6SM SCT050=



000
FTUS44 KCRP 252334
TAFVCT
TAF
KVCT 252334Z 2600/2624 16016KT P6SM VCTS SCT015CB BKN025
      TEMPO 2600/2602 VRB30G40KT 2SM TSRA BR BKN015CB
     FM260200 13011KT P6SM SCT015 BKN100
     FM260400 15009KT 6SM BR BKN012
     FM261500 16015KT P6SM SCT018 BKN025
     FM261900 14013KT P6SM SCT025 BKN035=



000
FTUS44 KCRP 252334
TAFCRP
TAF
KCRP 252334Z 2600/2624 16022G28KT P6SM SCT015 SCT025
      TEMPO 2600/2603 BKN015
     FM260300 14014KT P6SM BKN015
     FM260600 15010KT P6SM BKN015
     FM261430 15015G21KT P6SM SCT018 BKN025
     FM261800 14016G23KT P6SM SCT025 BKN035=



000
FTUS44 KCRP 252334
TAFALI
TAF
KALI 252334Z 2600/2624 16013KT P6SM SCT015 SCT025
     FM260500 15008KT P6SM OVC012
      TEMPO 2610/2614 BKN008
     FM261400 16013KT P6SM SCT012 BKN020
     FM261800 14015G20KT P6SM SCT025 BKN035=



000
FTUS44 KCRP 252334
TAFALI
TAF
KALI 252334Z 2600/2624 16013KT P6SM SCT015 SCT025
     FM260500 15008KT P6SM OVC012
      TEMPO 2610/2614 BKN008
     FM261400 16013KT P6SM SCT012 BKN020
     FM261800 14015G20KT P6SM SCT025 BKN035=



000
FTUS44 KCRP 252334
TAFVCT
TAF
KVCT 252334Z 2600/2624 16016KT P6SM VCTS SCT015CB BKN025
      TEMPO 2600/2602 VRB30G40KT 2SM TSRA BR BKN015CB
     FM260200 13011KT P6SM SCT015 BKN100
     FM260400 15009KT 6SM BR BKN012
     FM261500 16015KT P6SM SCT018 BKN025
     FM261900 14013KT P6SM SCT025 BKN035=



000
FTUS44 KCRP 252334
TAFCRP
TAF
KCRP 252334Z 2600/2624 16022G28KT P6SM SCT015 SCT025
      TEMPO 2600/2603 BKN015
     FM260300 14014KT P6SM BKN015
     FM260600 15010KT P6SM BKN015
     FM261430 15015G21KT P6SM SCT018 BKN025
     FM261800 14016G23KT P6SM SCT025 BKN035=



000
FTUS44 KCRP 252334
TAFLRD
TAF
KLRD 252334Z 2600/2624 17008KT P6SM FEW025
     FM260800 15010KT P6SM OVC012
      TEMPO 2610/2614 BKN009
     FM261500 15012KT P6SM SCT018 BKN026
     FM261700 13013KT P6SM SCT050=



000
FTUS44 KCRP 251725
TAFLRD
TAF
KLRD 251725Z 2518/2618 16014KT P6SM VCSH SCT025 BKN050
     FM252000 VRB05KT P6SM FEW050 SCT100
     FM260200 14011KT P6SM FEW100
     FM260900 15010KT P6SM BKN015
     FM261600 15010KT P6SM BKN025 BKN035=



000
FTUS44 KCRP 251725
TAFCRP
TAF
KCRP 251725Z 2518/2618 15022G32KT P6SM -SHRA VCTS SCT028CB BKN050
      TEMPO 2518/2522 VRB25G35KT 4SM TSRA BR BKN028CB OVC040
     FM252300 14022G32KT P6SM VCTS SCT025 BKN040CB
     FM260300 14015KT P6SM SCT025 BKN120
     FM260600 15010KT P6SM BKN015
     FM261300 16015G25KT P6SM BKN025=



000
FTUS44 KCRP 251725
TAFALI
TAF
KALI 251725Z 2518/2618 15022G32KT P6SM -SHRA VCTS SCT028CB BKN050
      TEMPO 2518/2522 VRB25G35KT 4SM TSRA BR BKN028CB OVC040
     FM252200 14015G22KT P6SM VCTS SCT025CB BKN040CB
     FM260200 14011KT P6SM SCT025 BKN120
      TEMPO 2608/2612 5SM BR BKN015
     FM261300 17015G25KT P6SM BKN030=



000
FTUS44 KCRP 251725
TAFVCT
TAF
KVCT 251725Z 2518/2618 15020G30KT P6SM -SHRA VCTS SCT025CB BKN050
      TEMPO 2519/2523 VRB25G35KT 4SM TSRA BR BKN025CB
     FM252300 15017G27KT P6SM VCTS SCT025CB OVC070
      TEMPO 2523/2601 VRB20G30KT 4SM TSRA BR BKN025CB
     FM260200 13011KT P6SM SCT025 BKN120
     FM260600 15007KT P6SM BKN015
     FM261400 18015KT P6SM BKN030=



000
FTUS44 KCRP 251327 AAA
TAFLRD
TAF AMD
KLRD 251327Z 2513/2612 14012KT P6SM VCTS OVC016CB
      TEMPO 2513/2517 VRB15G20KT TSRA OVC016CB
     FM251800 16014KT P6SM VCTS SCT025CB BKN050
     FM252100 VRB05KT P6SM SCT100
     FM260200 14011KT P6SM FEW100
     FM260800 15010KT P6SM BKN015=



000
FTUS44 KCRP 251134
TAFLRD
TAF
KLRD 251134Z 2512/2612 14012KT P6SM VCSH BKN012
     FM251600 16014KT P6SM VCTS SCT025CB BKN050
     FM252100 VRB05KT P6SM SCT100
     FM260200 14011KT P6SM FEW100
     FM260800 15010KT P6SM BKN015=



000
FTUS44 KCRP 251134
TAFVCT
TAF
KVCT 251134Z 2512/2612 13007KT P6SM FEW025 SCT250
     FM251400 15016KT P6SM SCT025 BKN050
      TEMPO 2518/2521 VRB20G30KT 3SM TSRA BR BKN024CB
     FM252100 15020G27KT 6SM -TSRA BR SCT025CB BKN050
      TEMPO 2521/2601 VRB30G40KT 1SM +TSRA BR BKN024CB
     FM260100 15010KT P6SM VCTS SCT025CB OVC070
      TEMPO 2601/2604 VRB20G30KT 3SM TSRA BR BKN015CB
     FM260400 13007KT P6SM SCT025 BKN120=



000
FTUS44 KCRP 251134
TAFCRP
TAF
KCRP 251134Z 2512/2612 14008KT P6SM FEW018
     FM251400 16015G22KT P6SM VCSH BKN025 OVC100
     FM251700 15021G30KT P6SM VCTS SCT028CB BKN050
      TEMPO 2517/2521 VRB25G35KT 3SM TSRA BR BKN028CB OVC040
     FM252200 14017G22KT 6SM -TSRA BR SCT025 BKN040CB
      TEMPO 2522/2602 VRB25G35KT 2SM +TSRA BR BKN015CB OVC040
     FM260300 14012KT P6SM SCT025 BKN120
     FM260600 15010KT P6SM BKN015=



000
FTUS44 KCRP 251134
TAFALI
TAF
KALI 251134Z 2512/2612 14009KT P6SM BKN025
     FM251400 15014G18KT P6SM VCSH BKN035 OVC100
     FM251700 15017G23KT P6SM VCTS SCT028CB BKN050
      TEMPO 2518/2522 VRB25G35KT 3SM TSRA BR BKN028CB OVC040
     FM252300 14013KT P6SM VCTS SCT025 BKN040CB PROB30 2523/2602
      VRB25G35KT 2SM +TSRA BR BKN015CB OVC040
     FM260200 14009KT P6SM SCT025 BKN120
     FM260700 15007KT P6SM BKN015=



000
FTUS44 KCRP 251022 AAA
TAFCRP
TAF AMD
KCRP 251022Z 2510/2606 14008KT P6SM FEW018
      TEMPO 2510/2514 BKN015
     FM251400 16015G22KT P6SM VCSH BKN020 OVC100
     FM251700 15021G30KT P6SM VCTS SCT028CB BKN050
      TEMPO 2517/2521 VRB25G35KT 3SM TSRA BR BKN028CB OVC040
     FM252200 14017G22KT 6SM -TSRA BR SCT025 BKN040CB
      TEMPO 2522/2602 VRB25G35KT 2SM +TSRA BR BKN015CB OVC040
     FM260300 14012KT P6SM SCT025 BKN120=



000
FTUS44 KCRP 251022 AAA
TAFCRP
TAF AMD
KCRP 251022Z 2510/2606 14008KT P6SM FEW018
      TEMPO 2510/2514 BKN015
     FM251400 16015G22KT P6SM VCSH BKN020 OVC100
     FM251700 15021G30KT P6SM VCTS SCT028CB BKN050
      TEMPO 2517/2521 VRB25G35KT 3SM TSRA BR BKN028CB OVC040
     FM252200 14017G22KT 6SM -TSRA BR SCT025 BKN040CB
      TEMPO 2522/2602 VRB25G35KT 2SM +TSRA BR BKN015CB OVC040
     FM260300 14012KT P6SM SCT025 BKN120=



000
FTUS44 KCRP 250537
TAFCRP
TAF
KCRP 250537Z 2506/2606 15011KT P6SM FEW018
     FM251000 16010KT P6SM BKN015
     FM251400 16015G22KT P6SM VCSH BKN020 OVC100
     FM251700 15021G30KT P6SM VCTS SCT028CB BKN050 PROB30 2517/2521
      VRB25G35KT 3SM TSRA BR BKN028CB OVC040
     FM252200 14017G22KT 6SM -TSRA BR SCT025 BKN040CB
      TEMPO 2522/2602 VRB25G35KT 2SM +TSRA BR BKN015CB OVC040
     FM260300 14012KT P6SM SCT025 BKN120=



000
FTUS44 KCRP 250537
TAFALI
TAF
KALI 250537Z 2506/2606 15009KT P6SM FEW015
     FM250900 16010KT P6SM BKN015
     FM251400 15014G18KT P6SM VCSH BKN020 OVC100
     FM251700 15017G23KT P6SM VCTS SCT028CB BKN050 PROB30 2517/2523
      VRB25G35KT 3SM TSRA BR BKN028CB OVC040
     FM252300 14013KT P6SM VCTS SCT025 BKN040CB
      TEMPO 2523/2602 VRB25G35KT 2SM +TSRA BR BKN015CB OVC040
     FM260200 14009KT P6SM SCT025 BKN120=



000
FTUS44 KCRP 250537
TAFVCT
TAF
KVCT 250537Z 2506/2606 13007KT P6SM SCT018 BKN050
     FM251000 13007KT P6SM BKN015
     FM251500 15016KT P6SM VCTS SCT018CB BKN040
      TEMPO 2517/2521 VRB20G30KT 3SM TSRA BR BKN024CB
     FM252100 15020G27KT 6SM -TSRA BR SCT025CB BKN050
      TEMPO 2521/2601 VRB30G40KT 1SM +TSRA BR BKN024CB
     FM260100 15010KT P6SM VCTS SCT025CB OVC070
      TEMPO 2601/2604 VRB20G30KT 3SM TSRA BR BKN015CB=



000
FTUS44 KCRP 250537
TAFLRD
TAF
KLRD 250537Z 2506/2606 15011KT P6SM SKC
     FM251000 14010KT P6SM BKN015
     FM251600 16014KT P6SM VCTS SCT025CB BKN050 PROB30 2516/2520
      VRB20G35KT 1SM +TSRA BR BKN015CB OVC040
     FM252100 VRB05KT P6SM SCT100
     FM260200 14011KT P6SM FEW100=



000
FTUS44 KCRP 250428 AAA
TAFVCT
TAF AMD
KVCT 250428Z 2504/2524 13007KT P6SM FEW018 BKN050
     FM250800 13007KT P6SM BKN015
     FM251500 15016KT P6SM VCTS SCT018CB BKN028
      TEMPO 2516/2520 VRB20G30KT 3SM TS BR BKN024CB
     FM252000 15018G24KT P6SM VCTS SCT028CB BKN040
      TEMPO 2520/2524 VRB30G40KT 2SM +TSRA BKN024CB=



000
FTUS44 KCRP 250428 AAA
TAFVCT
TAF AMD
KVCT 250428Z 2504/2524 13007KT P6SM FEW018 BKN050
     FM250800 13007KT P6SM BKN015
     FM251500 15016KT P6SM VCTS SCT018CB BKN028
      TEMPO 2516/2520 VRB20G30KT 3SM TS BR BKN024CB
     FM252000 15018G24KT P6SM VCTS SCT028CB BKN040
      TEMPO 2520/2524 VRB30G40KT 2SM +TSRA BKN024CB=



    US Dept of Commerce
    National Oceanic and Atmospheric Administration
    National Weather Service
    1325 East West Highway
    Silver Spring, MD 20910
    Page Author: NWS Internet Services Team
Disclaimer
Information Quality
Credits
Glossary
Privacy Policy
Freedom of Information Act (FOIA)
About Us
Career Opportunities